sensor_id;sensor_type;location;lat;lon;timestamp;P1;durP1;ratioP1;P2;durP2;ratioP2
77520;SDS011;66633;47.628;19.158;2023-05-10T00:00:03;5.05;;;1.92;;
77520;SDS011;66633;47.628;19.158;2023-05-10T00:02:29;4.53;;;1.73;;
77520;SDS011;66633;47.628;19.158;2023-05-10T00:04:54;4.83;;;1.93;;
77520;SDS011;66633;47.628;19.158;2023-05-10T00:07:20;6.85;;;2.50;;
77520;SDS011;66633;47.628;19.158;2023-05-10T00:09:45;4.33;;;1.90;;
77520;SDS011;66633;47.628;19.158;2023-05-10T00:12:10;5.32;;;2.00;;
77520;SDS011;66633;47.628;19.158;2023-05-10T00:14:36;5.53;;;2.10;;
77520;SDS011;66633;47.628;19.158;2023-05-10T00:17:01;5.00;;;2.20;;
77520;SDS011;66633;47.628;19.158;2023-05-10T00:19:26;4.30;;;2.10;;
77520;SDS011;66633;47.628;19.158;2023-05-10T00:21:52;5.45;;;2.13;;
77520;SDS011;66633;47.628;19.158;2023-05-10T00:24:17;5.30;;;2.47;;
77520;SDS011;66633;47.628;19.158;2023-05-10T00:26:42;4.82;;;2.15;;
77520;SDS011;66633;47.628;19.158;2023-05-10T00:29:07;5.03;;;2.37;;
77520;SDS011;66633;47.628;19.158;2023-05-10T00:31:33;5.30;;;2.37;;
77520;SDS011;66633;47.628;19.158;2023-05-10T00:33:58;5.20;;;2.10;;
77520;SDS011;66633;47.628;19.158;2023-05-10T00:36:23;5.63;;;2.40;;
77520;SDS011;66633;47.628;19.158;2023-05-10T00:38:48;6.30;;;2.10;;
77520;SDS011;66633;47.628;19.158;2023-05-10T00:41:14;4.53;;;1.90;;
77520;SDS011;66633;47.628;19.158;2023-05-10T00:43:39;4.40;;;1.90;;
77520;SDS011;66633;47.628;19.158;2023-05-10T00:46:04;4.00;;;1.60;;
77520;SDS011;66633;47.628;19.158;2023-05-10T00:48:30;4.22;;;2.08;;
77520;SDS011;66633;47.628;19.158;2023-05-10T00:50:55;4.68;;;1.85;;
77520;SDS011;66633;47.628;19.158;2023-05-10T00:53:20;4.43;;;2.08;;
77520;SDS011;66633;47.628;19.158;2023-05-10T00:55:46;5.25;;;2.53;;
77520;SDS011;66633;47.628;19.158;2023-05-10T00:58:11;5.13;;;2.28;;
77520;SDS011;66633;47.628;19.158;2023-05-10T01:00:37;5.38;;;2.40;;
77520;SDS011;66633;47.628;19.158;2023-05-10T01:03:03;6.28;;;2.50;;
77520;SDS011;66633;47.628;19.158;2023-05-10T01:05:28;5.17;;;2.40;;
77520;SDS011;66633;47.628;19.158;2023-05-10T01:07:54;4.82;;;2.00;;
77520;SDS011;66633;47.628;19.158;2023-05-10T01:10:19;5.65;;;2.17;;
77520;SDS011;66633;47.628;19.158;2023-05-10T01:12:45;3.80;;;1.67;;
77520;SDS011;66633;47.628;19.158;2023-05-10T01:15:10;5.30;;;2.35;;
77520;SDS011;66633;47.628;19.158;2023-05-10T01:17:37;4.90;;;2.20;;
77520;SDS011;66633;47.628;19.158;2023-05-10T01:20:04;4.13;;;2.05;;
77520;SDS011;66633;47.628;19.158;2023-05-10T01:27:47;4.43;;;2.00;;
77520;SDS011;66633;47.628;19.158;2023-05-10T01:35:19;4.63;;;2.17;;
77520;SDS011;66633;47.628;19.158;2023-05-10T01:37:47;5.95;;;2.58;;
77520;SDS011;66633;47.628;19.158;2023-05-10T01:42:43;5.27;;;2.37;;
77520;SDS011;66633;47.628;19.158;2023-05-10T01:47:50;6.90;;;3.03;;
77520;SDS011;66633;47.628;19.158;2023-05-10T01:52:42;4.15;;;2.03;;
77520;SDS011;66633;47.628;19.158;2023-05-10T01:55:11;5.57;;;2.30;;
77520;SDS011;66633;47.628;19.158;2023-05-10T01:57:38;5.65;;;2.25;;
77520;SDS011;66633;47.628;19.158;2023-05-10T02:00:04;4.95;;;2.20;;
77520;SDS011;66633;47.628;19.158;2023-05-10T02:02:33;4.43;;;1.92;;
77520;SDS011;66633;47.628;19.158;2023-05-10T02:04:58;5.13;;;2.00;;
77520;SDS011;66633;47.628;19.158;2023-05-10T02:07:24;5.78;;;1.90;;
77520;SDS011;66633;47.628;19.158;2023-05-10T02:09:51;4.68;;;2.13;;
77520;SDS011;66633;47.628;19.158;2023-05-10T02:12:16;5.68;;;2.30;;
77520;SDS011;66633;47.628;19.158;2023-05-10T02:14:43;5.30;;;2.60;;
77520;SDS011;66633;47.628;19.158;2023-05-10T02:17:09;4.50;;;2.10;;
77520;SDS011;66633;47.628;19.158;2023-05-10T02:19:35;4.95;;;2.17;;
77520;SDS011;66633;47.628;19.158;2023-05-10T02:22:01;7.57;;;2.55;;
77520;SDS011;66633;47.628;19.158;2023-05-10T02:24:27;5.75;;;2.95;;
77520;SDS011;66633;47.628;19.158;2023-05-10T02:26:53;6.57;;;2.53;;
77520;SDS011;66633;47.628;19.158;2023-05-10T02:29:19;4.45;;;2.13;;
77520;SDS011;66633;47.628;19.158;2023-05-10T02:31:45;4.55;;;2.33;;
77520;SDS011;66633;47.628;19.158;2023-05-10T02:34:10;5.28;;;2.47;;
77520;SDS011;66633;47.628;19.158;2023-05-10T02:36:37;5.18;;;2.70;;
77520;SDS011;66633;47.628;19.158;2023-05-10T02:39:03;5.57;;;2.20;;
77520;SDS011;66633;47.628;19.158;2023-05-10T02:41:30;6.43;;;2.88;;
77520;SDS011;66633;47.628;19.158;2023-05-10T02:43:56;6.28;;;2.58;;
77520;SDS011;66633;47.628;19.158;2023-05-10T02:46:22;5.53;;;2.88;;
77520;SDS011;66633;47.628;19.158;2023-05-10T02:48:48;5.40;;;2.78;;
77520;SDS011;66633;47.628;19.158;2023-05-10T02:51:13;4.88;;;2.20;;
77520;SDS011;66633;47.628;19.158;2023-05-10T02:53:43;5.03;;;2.20;;
77520;SDS011;66633;47.628;19.158;2023-05-10T02:56:11;5.22;;;2.70;;
77520;SDS011;66633;47.628;19.158;2023-05-10T02:58:38;5.95;;;2.70;;
77520;SDS011;66633;47.628;19.158;2023-05-10T03:01:03;5.03;;;2.30;;
77520;SDS011;66633;47.628;19.158;2023-05-10T03:03:28;5.68;;;2.55;;
77520;SDS011;66633;47.628;19.158;2023-05-10T03:05:54;5.87;;;3.03;;
77520;SDS011;66633;47.628;19.158;2023-05-10T03:08:21;6.13;;;2.60;;
77520;SDS011;66633;47.628;19.158;2023-05-10T03:10:58;4.45;;;2.00;;
77520;SDS011;66633;47.628;19.158;2023-05-10T03:13:36;6.45;;;2.90;;
77520;SDS011;66633;47.628;19.158;2023-05-10T03:18:29;8.00;;;2.97;;
77520;SDS011;66633;47.628;19.158;2023-05-10T03:20:57;7.43;;;3.47;;
77520;SDS011;66633;47.628;19.158;2023-05-10T03:23:28;6.03;;;3.15;;
77520;SDS011;66633;47.628;19.158;2023-05-10T03:25:55;7.30;;;3.03;;
77520;SDS011;66633;47.628;19.158;2023-05-10T03:28:20;5.28;;;2.78;;
77520;SDS011;66633;47.628;19.158;2023-05-10T03:30:47;5.47;;;2.72;;
77520;SDS011;66633;47.628;19.158;2023-05-10T03:33:12;6.50;;;3.15;;
77520;SDS011;66633;47.628;19.158;2023-05-10T03:35:38;6.85;;;3.47;;
77520;SDS011;66633;47.628;19.158;2023-05-10T03:38:03;5.70;;;2.90;;
77520;SDS011;66633;47.628;19.158;2023-05-10T03:40:29;5.90;;;3.20;;
77520;SDS011;66633;47.628;19.158;2023-05-10T03:42:56;8.20;;;3.35;;
77520;SDS011;66633;47.628;19.158;2023-05-10T03:45:21;6.18;;;3.17;;
77520;SDS011;66633;47.628;19.158;2023-05-10T03:47:47;5.93;;;3.20;;
77520;SDS011;66633;47.628;19.158;2023-05-10T03:50:12;6.32;;;3.40;;
77520;SDS011;66633;47.628;19.158;2023-05-10T03:52:37;6.00;;;3.00;;
77520;SDS011;66633;47.628;19.158;2023-05-10T03:55:04;6.35;;;2.90;;
77520;SDS011;66633;47.628;19.158;2023-05-10T03:57:29;6.80;;;3.38;;
77520;SDS011;66633;47.628;19.158;2023-05-10T03:59:55;5.88;;;2.47;;
77520;SDS011;66633;47.628;19.158;2023-05-10T04:02:20;6.63;;;2.80;;
77520;SDS011;66633;47.628;19.158;2023-05-10T04:04:45;7.40;;;3.30;;
77520;SDS011;66633;47.628;19.158;2023-05-10T04:07:10;5.67;;;2.63;;
77520;SDS011;66633;47.628;19.158;2023-05-10T04:09:36;5.57;;;2.60;;
77520;SDS011;66633;47.628;19.158;2023-05-10T04:12:01;7.10;;;3.07;;
77520;SDS011;66633;47.628;19.158;2023-05-10T04:14:27;6.13;;;3.05;;
77520;SDS011;66633;47.628;19.158;2023-05-10T04:16:52;6.63;;;2.83;;
77520;SDS011;66633;47.628;19.158;2023-05-10T04:19:18;7.43;;;3.58;;
77520;SDS011;66633;47.628;19.158;2023-05-10T04:21:43;6.45;;;3.25;;
77520;SDS011;66633;47.628;19.158;2023-05-10T04:24:08;6.47;;;3.20;;
77520;SDS011;66633;47.628;19.158;2023-05-10T04:26:33;6.30;;;3.53;;
77520;SDS011;66633;47.628;19.158;2023-05-10T04:28:59;7.35;;;4.13;;
77520;SDS011;66633;47.628;19.158;2023-05-10T04:31:24;8.60;;;4.03;;
77520;SDS011;66633;47.628;19.158;2023-05-10T04:33:49;6.57;;;3.40;;
77520;SDS011;66633;47.628;19.158;2023-05-10T04:36:15;5.90;;;3.47;;
77520;SDS011;66633;47.628;19.158;2023-05-10T04:38:40;6.90;;;3.70;;
77520;SDS011;66633;47.628;19.158;2023-05-10T04:41:06;8.07;;;2.97;;
77520;SDS011;66633;47.628;19.158;2023-05-10T04:43:32;6.25;;;3.00;;
77520;SDS011;66633;47.628;19.158;2023-05-10T04:45:57;6.20;;;2.90;;
77520;SDS011;66633;47.628;19.158;2023-05-10T04:48:22;5.40;;;2.90;;
77520;SDS011;66633;47.628;19.158;2023-05-10T04:50:49;6.07;;;3.50;;
77520;SDS011;66633;47.628;19.158;2023-05-10T04:53:15;7.95;;;4.38;;
77520;SDS011;66633;47.628;19.158;2023-05-10T04:55:41;7.97;;;4.57;;
77520;SDS011;66633;47.628;19.158;2023-05-10T04:58:06;8.53;;;4.20;;
77520;SDS011;66633;47.628;19.158;2023-05-10T05:00:32;7.90;;;4.30;;
77520;SDS011;66633;47.628;19.158;2023-05-10T05:02:57;6.20;;;3.28;;
77520;SDS011;66633;47.628;19.158;2023-05-10T05:05:23;8.00;;;3.80;;
77520;SDS011;66633;47.628;19.158;2023-05-10T05:07:48;7.22;;;3.50;;
77520;SDS011;66633;47.628;19.158;2023-05-10T05:10:13;6.97;;;3.67;;
77520;SDS011;66633;47.628;19.158;2023-05-10T05:12:39;6.60;;;3.58;;
77520;SDS011;66633;47.628;19.158;2023-05-10T05:15:04;5.50;;;2.93;;
77520;SDS011;66633;47.628;19.158;2023-05-10T05:17:30;7.00;;;3.47;;
77520;SDS011;66633;47.628;19.158;2023-05-10T05:19:56;6.85;;;3.63;;
77520;SDS011;66633;47.628;19.158;2023-05-10T05:22:21;8.77;;;3.38;;
77520;SDS011;66633;47.628;19.158;2023-05-10T05:24:52;7.85;;;4.00;;
77520;SDS011;66633;47.628;19.158;2023-05-10T05:27:17;8.57;;;3.78;;
77520;SDS011;66633;47.628;19.158;2023-05-10T05:29:43;8.45;;;4.35;;
77520;SDS011;66633;47.628;19.158;2023-05-10T05:32:08;7.90;;;4.17;;
77520;SDS011;66633;47.628;19.158;2023-05-10T05:34:33;8.02;;;3.78;;
77520;SDS011;66633;47.628;19.158;2023-05-10T05:36:59;7.10;;;3.53;;
77520;SDS011;66633;47.628;19.158;2023-05-10T05:39:24;7.88;;;3.90;;
77520;SDS011;66633;47.628;19.158;2023-05-10T05:41:49;9.57;;;4.05;;
77520;SDS011;66633;47.628;19.158;2023-05-10T05:44:15;7.85;;;4.13;;
77520;SDS011;66633;47.628;19.158;2023-05-10T05:46:40;7.50;;;3.45;;
77520;SDS011;66633;47.628;19.158;2023-05-10T05:49:05;6.88;;;4.00;;
77520;SDS011;66633;47.628;19.158;2023-05-10T05:51:31;9.57;;;3.90;;
77520;SDS011;66633;47.628;19.158;2023-05-10T05:53:56;6.63;;;3.88;;
77520;SDS011;66633;47.628;19.158;2023-05-10T05:56:21;7.27;;;3.53;;
77520;SDS011;66633;47.628;19.158;2023-05-10T05:58:52;7.07;;;3.47;;
77520;SDS011;66633;47.628;19.158;2023-05-10T06:01:17;11.40;;;4.38;;
77520;SDS011;66633;47.628;19.158;2023-05-10T06:03:43;7.80;;;4.07;;
77520;SDS011;66633;47.628;19.158;2023-05-10T06:06:08;7.23;;;4.10;;
77520;SDS011;66633;47.628;19.158;2023-05-10T06:08:33;7.20;;;4.17;;
77520;SDS011;66633;47.628;19.158;2023-05-10T06:10:59;6.38;;;3.58;;
77520;SDS011;66633;47.628;19.158;2023-05-10T06:13:25;6.38;;;3.90;;
77520;SDS011;66633;47.628;19.158;2023-05-10T06:15:53;8.35;;;4.45;;
77520;SDS011;66633;47.628;19.158;2023-05-10T06:18:19;8.17;;;3.80;;
77520;SDS011;66633;47.628;19.158;2023-05-10T06:20:44;8.73;;;4.07;;
77520;SDS011;66633;47.628;19.158;2023-05-10T06:23:09;6.30;;;3.33;;
77520;SDS011;66633;47.628;19.158;2023-05-10T06:25:34;7.10;;;3.97;;
77520;SDS011;66633;47.628;19.158;2023-05-10T06:27:59;6.93;;;4.03;;
77520;SDS011;66633;47.628;19.158;2023-05-10T06:30:25;7.03;;;3.70;;
77520;SDS011;66633;47.628;19.158;2023-05-10T06:32:53;6.50;;;4.00;;
77520;SDS011;66633;47.628;19.158;2023-05-10T06:35:19;6.15;;;3.75;;
77520;SDS011;66633;47.628;19.158;2023-05-10T06:37:44;7.07;;;4.23;;
77520;SDS011;66633;47.628;19.158;2023-05-10T06:40:09;7.13;;;3.78;;
77520;SDS011;66633;47.628;19.158;2023-05-10T06:42:35;6.30;;;3.60;;
77520;SDS011;66633;47.628;19.158;2023-05-10T06:45:00;6.63;;;4.20;;
77520;SDS011;66633;47.628;19.158;2023-05-10T06:47:25;7.90;;;4.33;;
77520;SDS011;66633;47.628;19.158;2023-05-10T06:49:51;6.20;;;3.73;;
77520;SDS011;66633;47.628;19.158;2023-05-10T06:52:16;6.10;;;3.50;;
77520;SDS011;66633;47.628;19.158;2023-05-10T06:54:41;7.15;;;3.80;;
77520;SDS011;66633;47.628;19.158;2023-05-10T06:57:06;6.80;;;3.63;;
77520;SDS011;66633;47.628;19.158;2023-05-10T06:59:32;6.68;;;4.07;;
77520;SDS011;66633;47.628;19.158;2023-05-10T07:01:57;6.63;;;3.67;;
77520;SDS011;66633;47.628;19.158;2023-05-10T07:04:22;6.70;;;3.33;;
77520;SDS011;66633;47.628;19.158;2023-05-10T07:06:47;6.37;;;4.00;;
77520;SDS011;66633;47.628;19.158;2023-05-10T07:09:14;6.72;;;3.50;;
77520;SDS011;66633;47.628;19.158;2023-05-10T07:11:39;5.70;;;3.40;;
77520;SDS011;66633;47.628;19.158;2023-05-10T07:14:05;6.57;;;3.50;;
77520;SDS011;66633;47.628;19.158;2023-05-10T07:16:30;8.07;;;3.67;;
77520;SDS011;66633;47.628;19.158;2023-05-10T07:18:55;7.00;;;3.77;;
77520;SDS011;66633;47.628;19.158;2023-05-10T07:21:20;5.70;;;3.28;;
77520;SDS011;66633;47.628;19.158;2023-05-10T07:23:48;6.00;;;3.72;;
77520;SDS011;66633;47.628;19.158;2023-05-10T07:26:14;7.75;;;3.95;;
77520;SDS011;66633;47.628;19.158;2023-05-10T07:28:39;5.43;;;3.20;;
77520;SDS011;66633;47.628;19.158;2023-05-10T07:31:05;7.25;;;3.60;;
77520;SDS011;66633;47.628;19.158;2023-05-10T07:33:30;6.35;;;3.03;;
77520;SDS011;66633;47.628;19.158;2023-05-10T07:35:56;6.45;;;3.85;;
77520;SDS011;66633;47.628;19.158;2023-05-10T07:38:21;6.65;;;3.30;;
77520;SDS011;66633;47.628;19.158;2023-05-10T07:40:46;7.10;;;3.83;;
77520;SDS011;66633;47.628;19.158;2023-05-10T07:43:12;6.95;;;3.53;;
77520;SDS011;66633;47.628;19.158;2023-05-10T07:45:37;7.90;;;4.17;;
77520;SDS011;66633;47.628;19.158;2023-05-10T07:48:02;8.40;;;3.70;;
77520;SDS011;66633;47.628;19.158;2023-05-10T07:50:28;6.20;;;3.50;;
77520;SDS011;66633;47.628;19.158;2023-05-10T07:52:53;9.40;;;3.65;;
77520;SDS011;66633;47.628;19.158;2023-05-10T07:55:18;6.88;;;3.55;;
77520;SDS011;66633;47.628;19.158;2023-05-10T07:57:44;6.03;;;3.80;;
77520;SDS011;66633;47.628;19.158;2023-05-10T08:00:12;6.15;;;3.45;;
77520;SDS011;66633;47.628;19.158;2023-05-10T08:02:37;6.53;;;3.53;;
77520;SDS011;66633;47.628;19.158;2023-05-10T08:05:02;6.88;;;3.35;;
77520;SDS011;66633;47.628;19.158;2023-05-10T08:07:28;6.82;;;3.08;;
77520;SDS011;66633;47.628;19.158;2023-05-10T08:09:53;5.57;;;3.37;;
77520;SDS011;66633;47.628;19.158;2023-05-10T08:12:19;7.35;;;3.60;;
77520;SDS011;66633;47.628;19.158;2023-05-10T08:14:44;6.30;;;3.45;;
77520;SDS011;66633;47.628;19.158;2023-05-10T08:17:10;6.63;;;3.70;;
77520;SDS011;66633;47.628;19.158;2023-05-10T08:19:35;7.28;;;3.65;;
77520;SDS011;66633;47.628;19.158;2023-05-10T08:22:01;6.22;;;3.80;;
77520;SDS011;66633;47.628;19.158;2023-05-10T08:24:26;6.38;;;3.35;;
77520;SDS011;66633;47.628;19.158;2023-05-10T08:26:51;4.90;;;2.60;;
77520;SDS011;66633;47.628;19.158;2023-05-10T08:29:17;6.18;;;3.53;;
77520;SDS011;66633;47.628;19.158;2023-05-10T08:31:42;7.00;;;3.60;;
77520;SDS011;66633;47.628;19.158;2023-05-10T08:34:07;7.83;;;3.60;;
77520;SDS011;66633;47.628;19.158;2023-05-10T08:36:32;6.35;;;2.90;;
77520;SDS011;66633;47.628;19.158;2023-05-10T08:38:58;6.53;;;3.53;;
77520;SDS011;66633;47.628;19.158;2023-05-10T08:41:24;6.70;;;3.80;;
77520;SDS011;66633;47.628;19.158;2023-05-10T08:43:51;7.15;;;3.83;;
77520;SDS011;66633;47.628;19.158;2023-05-10T08:46:20;7.07;;;4.03;;
77520;SDS011;66633;47.628;19.158;2023-05-10T08:48:46;5.65;;;3.40;;
77520;SDS011;66633;47.628;19.158;2023-05-10T08:51:13;7.70;;;3.75;;
77520;SDS011;66633;47.628;19.158;2023-05-10T08:53:39;6.35;;;3.20;;
77520;SDS011;66633;47.628;19.158;2023-05-10T08:56:04;6.38;;;3.45;;
77520;SDS011;66633;47.628;19.158;2023-05-10T08:58:30;5.82;;;3.42;;
77520;SDS011;66633;47.628;19.158;2023-05-10T09:00:56;8.30;;;4.15;;
77520;SDS011;66633;47.628;19.158;2023-05-10T09:03:21;6.05;;;3.58;;
77520;SDS011;66633;47.628;19.158;2023-05-10T09:05:47;6.43;;;3.83;;
77520;SDS011;66633;47.628;19.158;2023-05-10T09:08:13;7.47;;;3.72;;
77520;SDS011;66633;47.628;19.158;2023-05-10T09:10:45;6.75;;;3.28;;
77520;SDS011;66633;47.628;19.158;2023-05-10T09:13:12;6.25;;;3.13;;
77520;SDS011;66633;47.628;19.158;2023-05-10T09:15:39;7.78;;;3.63;;
77520;SDS011;66633;47.628;19.158;2023-05-10T09:18:04;6.00;;;3.73;;
77520;SDS011;66633;47.628;19.158;2023-05-10T09:20:29;6.40;;;3.78;;
77520;SDS011;66633;47.628;19.158;2023-05-10T09:22:54;5.93;;;3.70;;
77520;SDS011;66633;47.628;19.158;2023-05-10T09:25:20;5.88;;;3.28;;
77520;SDS011;66633;47.628;19.158;2023-05-10T09:27:45;5.72;;;3.20;;
77520;SDS011;66633;47.628;19.158;2023-05-10T09:30:15;5.20;;;3.00;;
77520;SDS011;66633;47.628;19.158;2023-05-10T09:32:41;6.55;;;3.67;;
77520;SDS011;66633;47.628;19.158;2023-05-10T09:35:07;6.13;;;3.33;;
77520;SDS011;66633;47.628;19.158;2023-05-10T09:37:33;6.88;;;3.50;;
77520;SDS011;66633;47.628;19.158;2023-05-10T09:39:58;7.22;;;3.53;;
77520;SDS011;66633;47.628;19.158;2023-05-10T09:42:23;5.60;;;3.17;;
77520;SDS011;66633;47.628;19.158;2023-05-10T09:44:49;5.30;;;3.20;;
77520;SDS011;66633;47.628;19.158;2023-05-10T09:47:17;5.22;;;2.85;;
77520;SDS011;66633;47.628;19.158;2023-05-10T09:49:43;5.72;;;3.28;;
77520;SDS011;66633;47.628;19.158;2023-05-10T09:52:09;6.60;;;3.22;;
77520;SDS011;66633;47.628;19.158;2023-05-10T09:54:34;5.33;;;3.00;;
77520;SDS011;66633;47.628;19.158;2023-05-10T09:57:00;5.90;;;2.75;;
77520;SDS011;66633;47.628;19.158;2023-05-10T09:59:26;5.38;;;2.75;;
77520;SDS011;66633;47.628;19.158;2023-05-10T10:01:55;5.45;;;2.92;;
77520;SDS011;66633;47.628;19.158;2023-05-10T10:04:21;7.65;;;2.90;;
77520;SDS011;66633;47.628;19.158;2023-05-10T10:06:46;5.15;;;3.10;;
77520;SDS011;66633;47.628;19.158;2023-05-10T10:09:12;6.00;;;3.30;;
77520;SDS011;66633;47.628;19.158;2023-05-10T10:11:38;6.47;;;2.88;;
77520;SDS011;66633;47.628;19.158;2023-05-10T10:14:05;7.18;;;2.92;;
77520;SDS011;66633;47.628;19.158;2023-05-10T10:16:30;5.65;;;3.05;;
77520;SDS011;66633;47.628;19.158;2023-05-10T10:18:56;5.20;;;3.03;;
77520;SDS011;66633;47.628;19.158;2023-05-10T10:21:22;4.90;;;2.70;;
77520;SDS011;66633;47.628;19.158;2023-05-10T10:23:47;5.05;;;2.72;;
77520;SDS011;66633;47.628;19.158;2023-05-10T10:26:13;4.80;;;2.60;;
77520;SDS011;66633;47.628;19.158;2023-05-10T10:31:15;5.03;;;2.90;;
77520;SDS011;66633;47.628;19.158;2023-05-10T10:36:08;6.05;;;3.28;;
77520;SDS011;66633;47.628;19.158;2023-05-10T10:41:27;5.25;;;2.50;;
77520;SDS011;66633;47.628;19.158;2023-05-10T10:49:24;5.63;;;2.78;;
77520;SDS011;66633;47.628;19.158;2023-05-10T10:54:34;4.70;;;2.60;;
77520;SDS011;66633;47.628;19.158;2023-05-10T10:57:13;4.82;;;2.50;;
77520;SDS011;66633;47.628;19.158;2023-05-10T10:59:44;4.65;;;2.58;;
77520;SDS011;66633;47.628;19.158;2023-05-10T11:02:10;5.97;;;2.60;;
77520;SDS011;66633;47.628;19.158;2023-05-10T11:04:55;6.03;;;2.70;;
77520;SDS011;66633;47.628;19.158;2023-05-10T11:07:20;5.25;;;2.65;;
77520;SDS011;66633;47.628;19.158;2023-05-10T11:09:46;5.15;;;2.47;;
77520;SDS011;66633;47.628;19.158;2023-05-10T11:12:12;5.57;;;2.53;;
77520;SDS011;66633;47.628;19.158;2023-05-10T11:14:37;6.32;;;2.63;;
77520;SDS011;66633;47.628;19.158;2023-05-10T11:17:21;5.90;;;2.55;;
77520;SDS011;66633;47.628;19.158;2023-05-10T11:20:02;4.72;;;2.63;;
77520;SDS011;66633;47.628;19.158;2023-05-10T11:22:28;5.25;;;2.60;;
77520;SDS011;66633;47.628;19.158;2023-05-10T11:24:57;5.57;;;2.50;;
77520;SDS011;66633;47.628;19.158;2023-05-10T11:27:23;4.85;;;2.45;;
77520;SDS011;66633;47.628;19.158;2023-05-10T11:29:51;5.13;;;2.33;;
77520;SDS011;66633;47.628;19.158;2023-05-10T11:32:17;5.43;;;2.38;;
77520;SDS011;66633;47.628;19.158;2023-05-10T11:34:46;4.78;;;2.22;;
77520;SDS011;66633;47.628;19.158;2023-05-10T11:37:12;4.70;;;2.20;;
77520;SDS011;66633;47.628;19.158;2023-05-10T11:39:37;4.97;;;2.40;;
77520;SDS011;66633;47.628;19.158;2023-05-10T11:42:03;4.35;;;2.30;;
77520;SDS011;66633;47.628;19.158;2023-05-10T11:44:29;3.95;;;1.90;;
77520;SDS011;66633;47.628;19.158;2023-05-10T11:46:54;5.28;;;2.67;;
77520;SDS011;66633;47.628;19.158;2023-05-10T11:49:19;5.85;;;2.40;;
77520;SDS011;66633;47.628;19.158;2023-05-10T11:51:45;5.55;;;2.45;;
77520;SDS011;66633;47.628;19.158;2023-05-10T11:54:10;5.07;;;2.53;;
77520;SDS011;66633;47.628;19.158;2023-05-10T11:56:39;6.32;;;2.60;;
77520;SDS011;66633;47.628;19.158;2023-05-10T11:59:05;4.97;;;2.50;;
77520;SDS011;66633;47.628;19.158;2023-05-10T12:01:30;5.75;;;2.65;;
77520;SDS011;66633;47.628;19.158;2023-05-10T12:03:56;4.00;;;2.10;;
77520;SDS011;66633;47.628;19.158;2023-05-10T12:06:26;5.78;;;2.40;;
77520;SDS011;66633;47.628;19.158;2023-05-10T12:08:51;6.47;;;2.40;;
77520;SDS011;66633;47.628;19.158;2023-05-10T12:11:18;4.45;;;2.28;;
77520;SDS011;66633;47.628;19.158;2023-05-10T12:13:44;4.78;;;2.20;;
77520;SDS011;66633;47.628;19.158;2023-05-10T12:16:33;5.15;;;2.30;;
77520;SDS011;66633;47.628;19.158;2023-05-10T12:18:58;4.68;;;2.35;;
77520;SDS011;66633;47.628;19.158;2023-05-10T12:21:24;3.92;;;2.05;;
77520;SDS011;66633;47.628;19.158;2023-05-10T12:23:50;4.90;;;2.20;;
77520;SDS011;66633;47.628;19.158;2023-05-10T12:26:16;4.97;;;2.30;;
77520;SDS011;66633;47.628;19.158;2023-05-10T12:28:41;4.13;;;2.20;;
77520;SDS011;66633;47.628;19.158;2023-05-10T12:31:06;5.95;;;2.17;;
77520;SDS011;66633;47.628;19.158;2023-05-10T12:33:38;4.60;;;2.50;;
77520;SDS011;66633;47.628;19.158;2023-05-10T12:36:04;5.90;;;2.58;;
77520;SDS011;66633;47.628;19.158;2023-05-10T12:38:37;4.93;;;2.70;;
77520;SDS011;66633;47.628;19.158;2023-05-10T12:41:06;5.47;;;2.58;;
77520;SDS011;66633;47.628;19.158;2023-05-10T12:43:32;5.85;;;2.33;;
77520;SDS011;66633;47.628;19.158;2023-05-10T12:45:58;5.32;;;2.75;;
77520;SDS011;66633;47.628;19.158;2023-05-10T12:48:23;5.13;;;2.40;;
77520;SDS011;66633;47.628;19.158;2023-05-10T12:50:48;4.63;;;2.75;;
77520;SDS011;66633;47.628;19.158;2023-05-10T12:53:14;5.15;;;2.38;;
77520;SDS011;66633;47.628;19.158;2023-05-10T12:55:41;4.95;;;2.40;;
77520;SDS011;66633;47.628;19.158;2023-05-10T12:58:06;5.28;;;2.35;;
77520;SDS011;66633;47.628;19.158;2023-05-10T13:00:31;5.57;;;2.13;;
77520;SDS011;66633;47.628;19.158;2023-05-10T13:02:56;6.10;;;2.70;;
77520;SDS011;66633;47.628;19.158;2023-05-10T13:05:22;5.07;;;2.38;;
77520;SDS011;66633;47.628;19.158;2023-05-10T13:07:47;8.77;;;2.45;;
77520;SDS011;66633;47.628;19.158;2023-05-10T13:10:12;7.33;;;2.10;;
77520;SDS011;66633;47.628;19.158;2023-05-10T13:12:37;5.28;;;2.10;;
77520;SDS011;66633;47.628;19.158;2023-05-10T13:15:03;4.50;;;2.00;;
77520;SDS011;66633;47.628;19.158;2023-05-10T13:17:28;4.03;;;2.20;;
77520;SDS011;66633;47.628;19.158;2023-05-10T13:19:53;4.35;;;2.13;;
77520;SDS011;66633;47.628;19.158;2023-05-10T13:22:19;4.13;;;2.00;;
77520;SDS011;66633;47.628;19.158;2023-05-10T13:24:44;3.80;;;1.92;;
77520;SDS011;66633;47.628;19.158;2023-05-10T13:27:10;3.80;;;2.10;;
77520;SDS011;66633;47.628;19.158;2023-05-10T13:29:35;5.10;;;2.20;;
77520;SDS011;66633;47.628;19.158;2023-05-10T13:32:00;5.27;;;2.07;;
77520;SDS011;66633;47.628;19.158;2023-05-10T13:34:26;5.72;;;2.20;;
77520;SDS011;66633;47.628;19.158;2023-05-10T13:36:51;4.28;;;2.13;;
77520;SDS011;66633;47.628;19.158;2023-05-10T13:39:17;5.03;;;2.47;;
77520;SDS011;66633;47.628;19.158;2023-05-10T13:41:43;4.80;;;1.90;;
77520;SDS011;66633;47.628;19.158;2023-05-10T13:44:08;5.33;;;2.10;;
77520;SDS011;66633;47.628;19.158;2023-05-10T13:46:33;5.15;;;2.25;;
77520;SDS011;66633;47.628;19.158;2023-05-10T13:48:59;4.80;;;2.28;;
77520;SDS011;66633;47.628;19.158;2023-05-10T13:51:24;4.18;;;2.08;;
77520;SDS011;66633;47.628;19.158;2023-05-10T13:53:49;4.80;;;2.20;;
77520;SDS011;66633;47.628;19.158;2023-05-10T13:56:15;6.00;;;2.13;;
77520;SDS011;66633;47.628;19.158;2023-05-10T13:58:40;5.13;;;2.28;;
77520;SDS011;66633;47.628;19.158;2023-05-10T14:01:06;4.97;;;2.55;;
77520;SDS011;66633;47.628;19.158;2023-05-10T14:03:31;4.07;;;1.92;;
77520;SDS011;66633;47.628;19.158;2023-05-10T14:05:57;5.72;;;2.30;;
77520;SDS011;66633;47.628;19.158;2023-05-10T14:08:22;4.57;;;2.10;;
77520;SDS011;66633;47.628;19.158;2023-05-10T14:10:48;4.40;;;1.90;;
77520;SDS011;66633;47.628;19.158;2023-05-10T14:13:13;3.60;;;1.70;;
77520;SDS011;66633;47.628;19.158;2023-05-10T14:15:39;7.65;;;2.13;;
77520;SDS011;66633;47.628;19.158;2023-05-10T14:18:04;5.30;;;2.40;;
77520;SDS011;66633;47.628;19.158;2023-05-10T14:20:29;4.55;;;2.25;;
77520;SDS011;66633;47.628;19.158;2023-05-10T14:22:55;5.80;;;2.20;;
77520;SDS011;66633;47.628;19.158;2023-05-10T14:25:20;4.30;;;2.20;;
77520;SDS011;66633;47.628;19.158;2023-05-10T14:27:46;6.33;;;2.30;;
77520;SDS011;66633;47.628;19.158;2023-05-10T14:30:11;5.35;;;2.50;;
77520;SDS011;66633;47.628;19.158;2023-05-10T14:32:36;6.10;;;2.17;;
77520;SDS011;66633;47.628;19.158;2023-05-10T14:35:02;5.75;;;2.03;;
77520;SDS011;66633;47.628;19.158;2023-05-10T14:37:27;5.90;;;2.13;;
77520;SDS011;66633;47.628;19.158;2023-05-10T14:39:53;6.07;;;1.77;;
77520;SDS011;66633;47.628;19.158;2023-05-10T14:42:19;3.80;;;2.00;;
77520;SDS011;66633;47.628;19.158;2023-05-10T14:44:44;5.55;;;1.73;;
77520;SDS011;66633;47.628;19.158;2023-05-10T14:47:09;4.03;;;1.73;;
77520;SDS011;66633;47.628;19.158;2023-05-10T14:49:34;4.57;;;2.00;;
77520;SDS011;66633;47.628;19.158;2023-05-10T14:52:00;4.63;;;1.77;;
77520;SDS011;66633;47.628;19.158;2023-05-10T14:54:25;4.53;;;1.70;;
77520;SDS011;66633;47.628;19.158;2023-05-10T14:56:50;2.50;;;1.52;;
77520;SDS011;66633;47.628;19.158;2023-05-10T14:59:16;3.23;;;1.70;;
77520;SDS011;66633;47.628;19.158;2023-05-10T15:01:41;3.78;;;1.48;;